Data for 05/09/2015

Time Sea-Level Adjusted Pressure Absolute Pressure Temperature Relative Humidity Dew Point   
(mb) (inHg) (mb) (inHg) (C) (F) (%) (C) (F)
00:05 1021 30.15 851 25.13 2.5 36.6 81 -0.3 31.4
00:10 1021 30.15 851 25.13 2.5 36.6 81 -0.4 31.2
00:15 1021 30.15 851 25.13 2.5 36.6 80 -0.6 31
00:20 1021 30.15 851 25.13 2.5 36.5 81 -0.5 31.2
00:25 1021 30.15 850 25.1 2.5 36.4 81 -0.4 31.2
00:30 1021 30.15 850 25.1 2.4 36.4 81 -0.6 30.9
00:35 1021 30.15 850 25.1 2.5 36.4 79 -0.8 30.6
00:40 1021 30.15 850 25.1 2.5 36.5 80 -0.7 30.8
00:45 1021 30.15 850 25.1 2.5 36.4 79 -0.8 30.6
00:50 1021 30.15 850 25.1 2.4 36.4 80 -0.7 30.8
00:55 1021 30.15 850 25.1 2.4 36.3 81 -0.6 30.9
01:00 1021 30.15 850 25.1 2.4 36.2 80 -0.7 30.7
01:05 1021 30.15 850 25.1 2.4 36.3 79 -0.8 30.5
01:10 1021 30.15 850 25.1 2.5 36.4 79 -0.8 30.5
01:15 1021 30.15 850 25.1 2.5 36.4 79 -0.8 30.6
01:20 1021 30.15 850 25.1 2.4 36.4 80 -0.7 30.7
01:25 1021 30.15 850 25.1 2.4 36.4 79 -0.9 30.4
01:30 1021 30.15 850 25.1 2.5 36.4 79 -0.9 30.4
01:35 1021 30.15 850 25.1 2.5 36.5 78 -1 30.2
01:40 1021 30.15 850 25.1 2.5 36.5 77 -1.1 30
01:45 1021 30.15 850 25.1 2.6 36.7 77 -1.1 30
01:50 1021 30.15 850 25.1 2.6 36.7 77 -1.1 30.1
01:55 1021 30.15 850 25.1 2.6 36.7 78 -0.9 30.4
02:00 1021 30.15 850 25.1 2.6 36.6 79 -0.8 30.6
02:05 1021 30.15 850 25.1 2.5 36.5 79 -0.7 30.7
02:10 1021 30.15 850 25.1 2.4 36.4 80 -0.6 30.9
02:15 1021 30.15 850 25.1 2.3 36.1 83 -0.3 31.4
02:20 1021 30.15 850 25.1 2.2 36 83 -0.4 31.3
02:25 1021 30.15 850 25.1 2.2 35.9 83 -0.4 31.2
02:30 1021 30.15 850 25.1 2.2 35.9 83 -0.5 31.2
02:35 1021 30.15 850 25.1 2.2 36 83 -0.5 31.2
02:40 1021 30.15 850 25.1 2.3 36.1 81 -0.6 30.9
02:45 1021 30.15 850 25.1 2.3 36.2 80 -0.8 30.5
02:50 1021 30.15 850 25.1 2.3 36.2 80 -0.8 30.5
02:55 1021 30.15 850 25.1 2.3 36.1 80 -0.8 30.6
03:00 1021 30.15 850 25.1 2.3 36.1 79 -0.9 30.3
03:05 1021 30.15 850 25.1 2.3 36.2 79 -1 30.2
03:10 1021 30.15 850 25.1 2.4 36.2 79 -0.9 30.4
03:15 1021 30.15 850 25.1 2.3 36.2 79 -1 30.2
03:20 1021 30.15 850 25.1 2.3 36.1 79 -1 30.3
03:25 1021 30.15 851 25.13 2.3 36.1 79 -0.9 30.3
03:30 1021 30.15 851 25.13 2.3 36.1 79 -1 30.2
03:35 1021 30.15 851 25.13 2.3 36.1 78 -1.1 30
03:40 1021 30.15 851 25.13 2.3 36.2 76 -1.4 29.5
03:45 1021 30.15 851 25.13 2.5 36.4 76 -1.3 29.6
03:50 1022 30.18 851 25.13 2.4 36.4 77 -1.2 29.8
03:55 1022 30.18 851 25.13 2.5 36.4 77 -1.2 29.8
04:00 1022 30.18 851 25.13 2.5 36.5 76 -1.4 29.6
04:05 1022 30.18 851 25.13 2.4 36.4 80 -0.7 30.8
04:10 1022 30.18 851 25.13 2.3 36.1 83 -0.4 31.3
04:15 1022 30.18 851 25.13 2.1 35.8 83 -0.4 31.2
04:20 1022 30.18 851 25.13 2.2 35.9 83 -0.4 31.2
04:25 1022 30.18 851 25.13 2.2 35.9 83 -0.5 31.1
04:30 1022 30.18 851 25.13 2.1 35.8 83 -0.6 31
04:35 1022 30.18 851 25.13 2.1 35.8 82 -0.7 30.7
04:40 1022 30.18 851 25.13 2.2 35.9 77 -1.4 29.6
04:45 1022 30.18 851 25.13 2.2 36 77 -1.5 29.4
04:50 1022 30.18 851 25.13 2.3 36.1 75 -1.7 29
04:55 1022 30.18 851 25.13 2.2 36 75 -1.8 28.8
05:00 1022 30.18 851 25.13 2.2 35.9 75 -1.8 28.7
05:05 1022 30.18 851 25.13 2.1 35.7 75 -2 28.5
05:10 1022 30.18 851 25.13 2 35.6 75 -2 28.4
05:15 1022 30.18 851 25.13 1.9 35.4 75 -2 28.4
05:20 1022 30.18 851 25.13 1.8 35.3 74 -2.3 27.8
05:25 1022 30.18 851 25.13 1.8 35.3 73 -2.5 27.6
05:30 1022 30.18 851 25.13 1.8 35.2 72 -2.7 27.1
05:35 1022 30.18 851 25.13 1.8 35.3 72 -2.8 27
05:40 1022 30.18 851 25.13 1.9 35.3 72 -2.6 27.2
05:45 1022 30.18 851 25.13 1.8 35.3 72 -2.7 27.2
05:50 1022 30.18 851 25.13 1.8 35.2 73 -2.6 27.3
05:55 1022 30.18 851 25.13 1.7 35.1 73 -2.7 27.2
06:00 1022 30.18 851 25.13 1.7 35 73 -2.7 27.1
06:05 1022 30.18 851 25.13 1.7 35 73 -2.6 27.2
06:10 1022 30.18 851 25.13 1.8 35.2 72 -2.7 27.1
06:15 1022 30.18 851 25.13 1.9 35.5 71 -2.9 26.8
06:20 1022 30.18 851 25.13 2.2 35.9 69 -2.9 26.8
06:25 1022 30.18 851 25.13 2.2 36 70 -2.8 27
06:30 1022 30.18 851 25.13 2.1 35.8 70 -2.9 26.8
06:35 1022 30.18 851 25.13 2.2 35.9 69 -2.9 26.8
06:40 1022 30.18 851 25.13 2.4 36.3 68 -2.9 26.8
06:45 1022 30.18 851 25.13 2.6 36.8 68 -2.7 27.2
06:50 1022 30.18 851 25.13 2.6 36.6 69 -2.5 27.4
06:55 1022 30.18 851 25.13 2.7 36.8 68 -2.6 27.4
07:00 1022 30.18 851 25.13 3 37.4 69 -2.1 28.2
07:05 1022 30.18 851 25.13 3.4 38 68 -2.1 28.3
07:10 1022 30.18 851 25.13 3.3 38 69 -1.8 28.8
07:15 1022 30.18 851 25.13 3.3 37.9 69 -1.8 28.7
07:20 1022 30.18 851 25.13 3.3 38 70 -1.7 28.9
07:25 1022 30.18 851 25.13 3.3 38 69 -1.7 28.9
07:30 1022 30.18 851 25.13 3.2 37.8 69 -2 28.4
07:35 1022 30.18 851 25.13 3.3 37.9 68 -2.1 28.2
07:40 1022 30.18 851 25.13 3.8 38.8 63 -2.6 27.3
07:45 1022 30.18 851 25.13 4 39.2 63 -2.3 27.8
07:50 1022 30.18 851 25.13 4.1 39.3 60 -2.9 26.8
07:55 1022 30.18 851 25.13 3.9 39 61 -2.9 26.7
08:00 1022 30.18 851 25.13 3.9 39 62 -2.6 27.3
08:05 1022 30.18 851 25.13 4.2 39.5 61 -2.7 27.1
08:10 1022 30.18 851 25.13 3.9 39.1 60 -3.2 26.2
08:15 1022 30.18 851 25.13 3.9 39.1 59 -3.3 26.1
08:20 1022 30.18 851 25.13 3.7 38.7 60 -3.3 26.1
08:25 1022 30.18 851 25.13 4 39.1 58 -3.5 25.8
08:30 1022 30.18 851 25.13 4.4 40 58 -3.1 26.4
08:35 1022 30.18 851 25.13 4.7 40.5 59 -2.7 27.2
08:40 1022 30.18 851 25.13 5.1 41.1 55 -3.1 26.4
08:45 1022 30.18 851 25.13 4.9 40.8 54 -3.6 25.6
08:50 1022 30.18 851 25.13 4.6 40.4 55 -3.6 25.4
08:55 1022 30.18 851 25.13 4.5 40.1 55 -3.8 25.1
09:00 1022 30.18 851 25.13 5 41 53 -3.9 25.1
09:05 1022 30.18 851 25.13 4.9 40.8 52 -4.1 24.6
09:10 1022 30.18 851 25.13 5 41.1 52 -3.9 25
09:15 1022 30.18 851 25.13 5.1 41.2 51 -4.1 24.7
09:20 1022 30.18 851 25.13 5 40.9 50 -4.6 23.7
09:25 1022 30.18 851 25.13 5.2 41.4 49 -4.6 23.6
09:30 1022 30.18 851 25.13 5.3 41.5 50 -4.2 24.4
09:35 1022 30.18 851 25.13 4.8 40.7 51 -4.4 24.1
09:40 1022 30.18 851 25.13 4.6 40.3 51 -4.6 23.7
09:45 1022 30.18 851 25.13 4.5 40.1 52 -4.6 23.7
09:50 1022 30.18 851 25.13 4.6 40.3 51 -4.7 23.6
09:55 1022 30.18 851 25.13 4.7 40.5 51 -4.5 24
10:00 1022 30.18 851 25.13 4.9 40.8 52 -4.1 24.6
10:05 1022 30.18 851 25.13 5.3 41.5 50 -4.2 24.5
10:10 1022 30.18 851 25.13 5.5 42 51 -3.8 25.1
10:15 1022 30.18 851 25.13 5.4 41.8 52 -3.7 25.3
10:20 1022 30.18 851 25.13 5.4 41.6 51 -4.1 24.7
10:25 1022 30.18 851 25.13 5.4 41.7 51 -4.1 24.7
10:30 1022 30.18 851 25.13 5.3 41.6 50 -4.2 24.4
10:35 1022 30.18 851 25.13 5.4 41.8 48 -4.8 23.4
10:40 1022 30.18 851 25.13 5.4 41.7 49 -4.5 23.8
10:45 1022 30.18 851 25.13 5.6 42.1 49 -4.3 24.2
10:50 1022 30.18 851 25.13 5.5 42 47 -4.8 23.3
10:55 1022 30.18 851 25.13 5.5 41.9 48 -4.7 23.5
11:00 1022 30.18 851 25.13 5.5 42 48 -4.6 23.7
11:05 1022 30.18 851 25.13 5.8 42.4 48 -4.5 23.9
11:10 1022 30.18 851 25.13 5.8 42.4 48 -4.3 24.2
11:15 1022 30.18 851 25.13 6.4 43.5 47 -4.2 24.4
11:20 1022 30.18 851 25.13 6.5 43.7 47 -4.1 24.6
11:25 1022 30.18 851 25.13 6.2 43.1 48 -4.1 24.7
11:30 1022 30.18 851 25.13 6 42.8 45 -5.1 22.8
11:35 1022 30.18 851 25.13 6.2 43.1 45 -4.8 23.3
11:40 1022 30.18 851 25.13 6.6 43.9 43 -5 23.1
11:45 1022 30.18 851 25.13 6.2 43.2 44 -5 22.9
11:50 1022 30.18 851 25.13 6.2 43.2 45 -4.9 23.1
11:55 1022 30.18 851 25.13 6.6 43.8 44 -4.9 23.2
12:00 1022 30.18 851 25.13 6.7 44 43 -5.1 22.8
12:05 1022 30.18 851 25.13 6.4 43.5 43 -5.2 22.6
12:10 1022 30.18 851 25.13 6.3 43.3 45 -4.9 23.1
12:15 1022 30.18 851 25.13 6.3 43.4 45 -4.7 23.6
12:20 1022 30.18 851 25.13 6.2 43.1 45 -4.8 23.4
12:25 1022 30.18 851 25.13 6.3 43.4 43 -5.2 22.6
12:30 1022 30.18 851 25.13 6.9 44.4 42 -5.2 22.7
12:35 1022 30.18 851 25.13 7.4 45.3 39 -5.6 21.8
12:40 1022 30.18 851 25.13 7.5 45.5 40 -5.2 22.7
12:45 1022 30.18 851 25.13 7.9 46.2 40 -5 22.9
12:50 1022 30.18 851 25.13 7.7 45.9 40 -4.9 23.1
12:55 1022 30.18 851 25.13 7.5 45.5 42 -4.7 23.5
13:00 1022 30.18 851 25.13 7.8 46.1 39 -5.3 22.4
13:05 1022 30.18 851 25.13 8.1 46.6 40 -4.7 23.5
13:10 1022 30.18 851 25.13 8.2 46.7 38 -5.1 22.8
13:15 1022 30.18 851 25.13 8.2 46.7 38 -5.1 22.8
13:20 1022 30.18 851 25.13 8.2 46.8 40 -4.5 23.9
13:25 1022 30.18 851 25.13 8.2 46.7 40 -4.6 23.7
13:30 1022 30.18 851 25.13 8.3 47 40 -4.6 23.8
13:35 1021 30.15 851 25.13 7.8 46 40 -4.8 23.3
13:40 1021 30.15 851 25.13 7.8 46 40 -5.1 22.8
13:45 1022 30.18 851 25.13 7.7 45.8 40 -5.1 22.9
13:50 1022 30.18 851 25.13 7.9 46.3 39 -5 22.9
13:55 1022 30.18 851 25.13 8.1 46.5 40 -4.7 23.5
14:00 1022 30.18 851 25.13 8 46.4 39 -5 23.1
14:05 1022 30.18 851 25.13 8.1 46.6 38 -5.2 22.6
14:10 1022 30.18 851 25.13 7.5 45.5 40 -5.3 22.5
14:15 1022 30.18 851 25.13 7.6 45.7 39 -5.6 21.9
14:20 1022 30.18 851 25.13 7.7 45.8 40 -5.1 22.9
14:25 1022 30.18 851 25.13 7.8 46 38 -5.5 22
14:30 1022 30.18 851 25.13 8 46.5 40 -4.6 23.7
14:35 1022 30.18 851 25.13 8.2 46.7 40 -4.5 24
14:40 1022 30.18 851 25.13 8.1 46.6 42 -4.1 24.5
14:45 1022 30.18 851 25.13 7.8 46.1 40 -5.1 22.9
14:50 1022 30.18 851 25.13 7.8 46 42 -4.3 24.2
14:55 1022 30.18 851 25.13 7.5 45.4 41 -4.9 23.3
15:00 1022 30.18 851 25.13 7.7 45.9 40 -5.1 22.8
15:05 1022 30.18 851 25.13 7.9 46.2 40 -4.7 23.5
15:10 1021 30.15 851 25.13 8 46.3 40 -4.7 23.6
15:15 1021 30.15 851 25.13 8 46.4 39 -5 23
15:20 1021 30.15 851 25.13 7.8 46.1 41 -4.7 23.5
15:25 1021 30.15 851 25.13 7.8 46 41 -4.8 23.4
15:30 1021 30.15 851 25.13 7.9 46.2 40 -4.9 23.2
15:35 1021 30.15 851 25.13 8 46.4 39 -5.2 22.7
15:40 1021 30.15 851 25.13 8 46.4 39 -4.9 23.1
15:45 1021 30.15 851 25.13 7.9 46.3 39 -5.3 22.4
15:50 1021 30.15 851 25.13 8.1 46.6 39 -4.9 23.1
15:55 1021 30.15 851 25.13 7.9 46.2 39 -5.2 22.6
16:00 1021 30.15 851 25.13 8.1 46.5 40 -4.8 23.3
16:05 1021 30.15 851 25.13 8 46.4 40 -4.7 23.6
16:10 1021 30.15 851 25.13 7.9 46.2 41 -4.5 23.9
16:15 1021 30.15 851 25.13 7.8 46.1 41 -4.7 23.5
16:20 1021 30.15 851 25.13 7.5 45.5 41 -4.8 23.4
16:25 1022 30.18 851 25.13 7.4 45.3 41 -5.1 22.7
16:30 1022 30.18 851 25.13 7.6 45.7 40 -5 23
16:35 1022 30.18 851 25.13 7.3 45.2 41 -5 23
16:40 1022 30.18 851 25.13 7.4 45.2 42 -4.8 23.4
16:45 1022 30.18 851 25.13 7.4 45.3 41 -4.9 23.1
16:50 1022 30.18 851 25.13 7.1 44.8 42 -5 23.1
16:55 1022 30.18 851 25.13 7.1 44.7 42 -5 22.9
17:00 1022 30.18 851 25.13 6.9 44.4 43 -4.8 23.4
17:05 1022 30.18 851 25.13 7.1 44.7 42 -4.8 23.3
17:10 1022 30.18 851 25.13 6.8 44.3 43 -4.9 23.2
17:15 1022 30.18 851 25.13 6.9 44.3 43 -4.8 23.4
17:20 1022 30.18 851 25.13 6.8 44.3 43 -4.9 23.2
17:25 1022 30.18 851 25.13 6.9 44.5 42 -5 23
17:30 1022 30.18 851 25.13 6.8 44.2 43 -5 23
17:35 1022 30.18 851 25.13 6.6 43.9 44 -4.8 23.4
17:40 1022 30.18 851 25.13 6.6 44 43 -4.9 23.2
17:45 1022 30.18 851 25.13 6.8 44.2 44 -4.7 23.5
17:50 1022 30.18 851 25.13 6.7 44.1 41 -5.5 22.1
17:55 1022 30.18 851 25.13 6.5 43.7 42 -5.6 22
18:00 1022 30.18 851 25.13 6.5 43.7 42 -5.5 22.1
18:05 1022 30.18 851 25.13 6.5 43.6 42 -5.5 22.2
18:10 1022 30.18 851 25.13 6.3 43.4 43 -5.4 22.2
18:15 1022 30.18 851 25.13 6.1 43.1 44 -5.3 22.4
18:20 1022 30.18 851 25.13 6.1 43 43 -5.6 21.9
18:25 1022 30.18 851 25.13 6 42.8 43 -5.6 22
18:30 1022 30.18 851 25.13 6 42.8 44 -5.4 22.3
18:35 1022 30.18 851 25.13 6 42.8 45 -5.1 22.9
18:40 1022 30.18 851 25.13 5.8 42.5 46 -4.8 23.3
18:45 1022 30.18 851 25.13 5.8 42.4 46 -5.1 22.9
18:50 1022 30.18 851 25.13 5.7 42.2 46 -5.2 22.7
18:55 1022 30.18 851 25.13 5.6 42.1 44 -5.5 22
19:00 1022 30.18 851 25.13 5.6 42 45 -5.3 22.4
19:05 1022 30.18 851 25.13 5.5 41.9 45 -5.6 22
19:10 1022 30.18 851 25.13 5.4 41.7 44 -5.9 21.4
19:15 1022 30.18 851 25.13 5.3 41.5 46 -5.5 22.1
19:20 1022 30.18 851 25.13 5.2 41.3 47 -5.1 22.7
19:25 1022 30.18 852 25.16 5 41.1 48 -5.1 22.9
19:30 1022 30.18 852 25.16 4.9 40.9 49 -5 23.1
19:35 1022 30.18 852 25.16 4.8 40.7 49 -4.9 23.1
19:40 1022 30.18 852 25.16 4.8 40.6 50 -4.8 23.3
19:45 1022 30.18 852 25.16 4.7 40.5 50 -4.8 23.3
19:50 1023 30.21 852 25.16 4.6 40.3 51 -4.7 23.5
19:55 1023 30.21 852 25.16 4.4 39.9 51 -4.9 23.2
20:00 1023 30.21 852 25.16 4.3 39.7 52 -4.8 23.4
20:05 1023 30.21 852 25.16 4.1 39.4 52 -5 23
20:10 1023 30.21 852 25.16 4 39.2 52 -5.1 22.9
20:15 1023 30.21 852 25.16 3.9 39.1 52 -5.1 22.8
20:20 1023 30.21 852 25.16 3.9 38.9 52 -5 22.9
20:25 1023 30.21 852 25.16 3.8 38.8 53 -5 23.1
20:30 1023 30.21 852 25.16 3.8 38.8 53 -4.9 23.1
20:35 1023 30.21 852 25.16 3.8 38.8 54 -4.8 23.4
20:40 1023 30.21 852 25.16 3.7 38.7 54 -4.8 23.4
20:45 1023 30.21 852 25.16 3.6 38.5 54 -4.8 23.3
20:50 1023 30.21 852 25.16 3.6 38.4 54 -5 23
20:55 1023 30.21 852 25.16 3.6 38.4 53 -5.2 22.7
21:00 1023 30.21 852 25.16 3.5 38.3 53 -5.2 22.6
21:05 1023 30.21 852 25.16 3.6 38.4 52 -5.4 22.3
21:10 1023 30.21 852 25.16 3.5 38.4 52 -5.3 22.5
21:15 1023 30.21 852 25.16 3.5 38.2 52 -5.4 22.2
21:20 1023 30.21 852 25.16 3.5 38.2 53 -5.3 22.5
21:25 1023 30.21 852 25.16 3.4 38.2 53 -5.3 22.4
21:30 1023 30.21 852 25.16 3.4 38 53 -5.3 22.5
21:35 1023 30.21 852 25.16 3.3 38 53 -5.4 22.3
21:40 1023 30.21 852 25.16 3.3 37.9 52 -5.6 21.9
21:45 1023 30.21 852 25.16 3.4 38 52 -5.7 21.8
21:50 1023 30.21 852 25.16 3.3 37.9 52 -5.6 22
21:55 1023 30.21 852 25.16 3.2 37.8 52 -5.7 21.8
22:00 1023 30.21 852 25.16 3.1 37.6 53 -5.6 22
22:05 1023 30.21 852 25.16 3.1 37.5 53 -5.7 21.7
22:10 1023 30.21 852 25.16 3.1 37.5 52 -5.9 21.5
22:15 1023 30.21 852 25.16 3.1 37.6 52 -5.9 21.5
22:20 1023 30.21 852 25.16 3.1 37.6 51 -6 21.2
22:25 1023 30.21 852 25.16 3.1 37.7 51 -6.1 21.1
22:30 1023 30.21 852 25.16 3.2 37.8 50 -6.2 20.9
22:35 1023 30.21 852 25.16 3.2 37.8 51 -6 21.1
22:40 1023 30.21 852 25.16 3.1 37.6 51 -6.1 21
22:45 1023 30.21 852 25.16 3.1 37.6 51 -6.1 20.9
22:50 1023 30.21 852 25.16 3.1 37.5 51 -6.1 21.1
22:55 1023 30.21 852 25.16 3 37.3 51 -6.2 20.9
23:00 1023 30.21 852 25.16 3 37.3 51 -6.2 20.9
23:05 1023 30.21 852 25.16 3 37.3 51 -6.3 20.7
23:10 1023 30.21 852 25.16 3 37.4 51 -6.1 21
23:15 1023 30.21 852 25.16 2.9 37.2 51 -6.3 20.7
23:20 1023 30.21 852 25.16 2.9 37.3 50 -6.4 20.5
23:25 1023 30.21 852 25.16 2.9 37.1 52 -6.2 20.9
23:30 1023 30.21 852 25.16 2.7 36.9 52 -6.1 21.1
23:35 1023 30.21 852 25.16 2.5 36.5 53 -6.1 20.9
23:40 1023 30.21 852 25.16 2.6 36.7 52 -6.3 20.7
23:45 1023 30.21 852 25.16 2.6 36.7 53 -6.1 20.9
23:50 1023 30.21 852 25.16 2.5 36.5 52 -6.2 20.8
23:55 1023 30.21 852 25.16 2.5 36.5 53 -6.1 20.9
24:00 1023 30.21 852 25.16 2.5 36.5 53 -6.1 21